Stonington, CT (06378)

10:43 PM EDT on September 01, 2014 (GMT -0400)
Masons Island Marina | Change Station
CLOSE
Current Station
Personal Weather Station
Location: Stonington, CT
Elevation: 30 ft
Nearby Weather Stations

Elev 30 ft 41.34 °N, 71.96 °W | Updated 8 seconds ago

Partly Cloudy
Partly Cloudy
73.4 °F
Feels Like 70 °F
N
0.9
Wind Variable Wind from SW
Gusts 2.0 mph

Today
High -- | Low -- °F
--% Chance of Precip.
Yesterday
High -- | Low -- °F
Precip. -- in
6:13 AM 7:20 PM
Waxing Crescent, 46% visible
Pressure 29.97 in
Visibility 10.0 miles
Clouds Few 9000 ft
Heat Index 70 °F
Dew Point 71 °F
Humidity 93%
Rainfall 0.00 in
Snow Depth Not available.
UV 0 out of 12
Pollen 4.30 out of 12
Ozone Good
PM2.5 Good
Flu Activity Not available.
METAR KWST 020153Z AUTO 22004KT 10SM FEW090 23/21 A2997 RMK AO2 SLP149 T02280211

More Conditions Fewer Conditions

Pressure 29.97 in
Visibility 10.0 miles
Clouds Few 9000 ft
Heat Index 70 °F
Dew Point 71 °F
Humidity 93%
Rainfall 0.00 in
Snow Depth Not available.
UV 0 out of 12
Pollen 4.30 out of 12
Ozone Good
PM2.5 Good
Flu Activity Not available.
METAR KWST 020153Z AUTO 22004KT 10SM FEW090 23/21 A2997 RMK AO2 SLP149 T02280211

More Conditions Fewer Conditions

10-Day Weather Forecast

Almanac

Astronomy

Sep. 01, 2014 Rise Set
Actual Time 6:13 AM EDT 7:20 PM EDT
Civil Twilight 5:45 AM EDT 7:48 PM EDT
Nautical Twilight 5:11 AM EDT 8:22 PM EDT
Astronomical Twilight 4:36 AM EDT 8:58 PM EDT
Moon 1:01 PM EDT (9/1) 11:14 PM EDT (9/1)
Length of Visible Light 14h 03m
Length of Day
13h 06m
Tomorrow will be 2m 40s shorter.
Waxing Crescent, 46% of the Moon is Illuminated
Today
Waxing Crescent
Sep 2
First Quarter
Sep 8
Full
Sep 15
Last Quarter
Sep 24
New

Today's Extremes

State Highs State Lows

Community

WunderPhotos

Upload Photos

1,749,513 photos uploaded!

Nearby

Air Quality

  Air Quality AQ Index Pollutant
Yesterday Good
OZONE
Yesterday Good
PM2.5
Current Good
PM2.5
Current Good
OZONE
Monday Good
PM2.5
Monday Good
OZONE
Tuesday Moderate
OZONE
Tuesday Moderate
PM2.5

Snow Depth

Station Depth Elevation
No new snow has been reported.

Earthquake Activity

City Distance Mag. Time & Date
No recent earthquake activity has been reported nearby.
Minimum magnitude displayed is 2.5.

Coastal Water Temperatures

Place Temperature
New London, CT 73.0 °F
Newport, RI 70.0 °F
Quonset Point, RI 73.0 °F
Conimicut Light, RI 73.9 °F
Providence, RI 73.9 °F

Nearby Weather Stations